KSNY/SNY METAR and TAF weather

Enter ICAO airport designator
Station Type Date Time Source
KSNY METAR 2021/02/24 16:53 UTC NOAA

KSNY 241653Z AUTO 31006KT 10SM CLR 02/M07 A3014 RMK AO2 SLP230 T00171072


Station Type Date Time Source
KSNY Decoded METAR 2021/02/24 16:53 UTC NOAA

SIDNEY MUNICIPAL AIRPORT, NE, United States (KSNY) 41-06N 102-59W 1307M
Feb 24, 2021 - 11:53 AM EST / 2021.02.24 1653 UTC
Wind: from the NW (310 degrees) at 7 MPH (6 KT):0
Visibility: 10 mile(s):0
Sky conditions: clear
Temperature: 35.1 F (1.7 C)
Dew Point: 19.0 F (-7.2 C)
Relative Humidity: 51%
Pressure (altimeter): 30.14 in. Hg (1020 hPa)
ob: KSNY 241653Z AUTO 31006KT 10SM CLR 02/M07 A3014 RMK AO2 SLP230 T00171072
cycle: 17

Station Type Date Time Source
KSNY TAF 2021/02/24 12:24 UTC NOAA

TAF KSNY 241120Z 2412/2512 32010KT P6SM SKC
FM242200 35012KT P6SM OVC100

Example: see airport list